Time;durP1;ratioP1;P1;durP2;ratioP2;P2;SDS_P1;SDS_P2;PMS_P1;PMS_P2;Temp;Humidity;BMP_temperature;BMP_pressure;BME280_temperature;BME280_humidity;BME280_pressure;Samples;Min_cycle;Max_cycle;Signal;HPM_P1;HPM_P2
2021/10/16 00:00:15;;;;;;;5.70;4.90;;;;;;;9.38;90.03;99149.32;112746;1189;61042;-85
2021/10/16 00:03:02;;;;;;;4.70;4.30;;;;;;;9.35;89.82;99148.47;112554;1190;68220;-85
2021/10/16 00:05:29;;;;;;;6.10;4.30;;;;;;;9.30;89.86;99149.80;112806;1190;60931;-86
2021/10/16 00:07:56;;;;;;;4.90;4.10;;;;;;;9.27;89.84;99156.20;112583;1193;62496;-85
2021/10/16 00:10:22;;;;;;;6.40;3.30;;;;;;;9.23;89.78;99153.91;112665;1190;61033;-86
2021/10/16 00:12:49;;;;;;;4.90;3.60;;;;;;;9.20;89.84;99157.84;112744;1190;61045;-84
2021/10/16 00:15:16;;;;;;;3.90;2.60;;;;;;;9.17;89.74;99158.73;112771;1189;66024;-85
2021/10/16 00:17:43;;;;;;;3.00;2.60;;;;;;;9.14;89.79;99159.09;112643;1191;61039;-85
2021/10/16 00:20:10;;;;;;;3.60;2.50;;;;;;;9.10;89.71;99162.15;112589;1190;63849;-85
2021/10/16 00:22:37;;;;;;;4.20;2.90;;;;;;;9.04;89.69;99166.58;112638;1190;61036;-85
2021/10/16 00:25:04;;;;;;;3.50;3.00;;;;;;;8.97;89.66;99167.88;112636;1190;61032;-85
2021/10/16 00:27:31;;;;;;;3.60;2.30;;;;;;;8.87;89.78;99169.34;112622;1190;66006;-85
2021/10/16 00:29:57;;;;;;;4.40;3.80;;;;;;;8.77;89.89;99172.01;112675;1190;61487;-85
2021/10/16 00:32:24;;;;;;;5.20;2.80;;;;;;;8.70;89.95;99171.34;112657;1190;65012;-85
2021/10/16 00:34:50;;;;;;;4.20;2.90;;;;;;;8.61;90.16;99175.20;112759;1190;61032;-85
2021/10/16 00:37:17;;;;;;;3.50;3.10;;;;;;;8.53;90.23;99173.36;112690;1190;61003;-85
2021/10/16 00:39:44;;;;;;;3.40;2.60;;;;;;;8.47;90.29;99179.39;112641;1190;64628;-85
2021/10/16 00:42:10;;;;;;;4.10;2.90;;;;;;;8.41;90.44;99183.04;112666;1189;60972;-85
2021/10/16 00:44:37;;;;;;;6.60;3.20;;;;;;;8.36;90.57;99187.19;112691;1190;62760;-85
2021/10/16 00:47:04;;;;;;;5.40;2.70;;;;;;;8.32;90.65;99184.77;112747;1190;61048;-85
2021/10/16 00:49:31;;;;;;;3.20;2.30;;;;;;;8.28;90.63;99187.79;112791;1190;61017;-85
2021/10/16 00:52:00;;;;;;;4.20;2.60;;;;;;;8.26;90.63;99187.73;112783;1190;64648;-85
2021/10/16 00:54:28;;;;;;;3.80;2.30;;;;;;;8.24;90.73;99189.77;112759;1190;61092;-85
2021/10/16 00:57:00;;;;;;;2.70;2.20;;;;;;;8.20;90.65;99190.70;112696;1190;64582;-85
2021/10/16 00:59:28;;;;;;;3.60;2.40;;;;;;;8.18;90.57;99191.20;112792;1189;61052;-85
2021/10/16 01:01:55;;;;;;;3.60;2.80;;;;;;;8.15;90.57;99195.41;112777;1190;61020;-85
2021/10/16 01:04:22;;;;;;;5.40;2.90;;;;;;;8.13;90.68;99194.81;112675;1190;64667;-85
2021/10/16 01:06:49;;;;;;;3.50;3.10;;;;;;;8.14;90.74;99198.45;112596;1190;61039;-85
2021/10/16 01:09:16;;;;;;;4.50;3.50;;;;;;;8.15;90.63;99199.51;112704;1189;63850;-85
2021/10/16 01:11:52;;;;;;;6.50;4.50;;;;;;;8.14;90.68;99202.17;112743;1189;61015;-85
2021/10/16 01:14:20;;;;;;;6.80;4.80;;;;;;;8.14;90.63;99204.30;112767;1190;60965;-85
2021/10/16 01:16:50;;;;;;;8.00;6.20;;;;;;;8.13;90.68;99201.86;112659;1189;65842;-85
2021/10/16 01:19:19;;;;;;;13.10;8.50;;;;;;;8.12;90.74;99201.59;112702;1190;60987;-85
2021/10/16 01:21:55;;;;;;;13.40;9.60;;;;;;;8.10;90.77;99196.02;112614;1190;64038;-85
2021/10/16 01:24:22;;;;;;;12.10;8.30;;;;;;;8.08;90.88;99193.30;112681;1190;61042;-85
2021/10/16 01:26:50;;;;;;;7.50;5.80;;;;;;;8.04;90.88;99192.85;112621;1190;60972;-85
2021/10/16 01:29:22;;;;;;;8.50;6.10;;;;;;;7.97;90.89;99188.98;112597;1190;67466;-85
2021/10/16 01:31:49;;;;;;;10.20;6.90;;;;;;;7.89;90.95;99186.54;112775;1190;61074;-85
2021/10/16 01:34:15;;;;;;;11.50;6.90;;;;;;;7.80;91.00;99189.67;112811;1190;63713;-85
2021/10/16 01:36:45;;;;;;;12.70;8.40;;;;;;;7.69;91.06;99188.65;112727;1190;61033;-85
2021/10/16 01:39:13;;;;;;;12.40;9.60;;;;;;;7.59;91.19;99190.55;112758;1190;60935;-85
2021/10/16 01:41:40;;;;;;;9.70;7.40;;;;;;;7.49;91.27;99193.92;112702;1190;64569;-85
2021/10/16 01:44:09;;;;;;;8.30;6.70;;;;;;;7.38;91.22;99199.45;112691;1190;61045;-85
2021/10/16 01:46:36;;;;;;;10.10;7.10;;;;;;;7.26;91.34;99201.95;112711;1190;64088;-85
2021/10/16 01:49:12;;;;;;;7.80;6.50;;;;;;;7.16;91.46;99205.46;112732;1190;61145;-85
2021/10/16 01:51:40;;;;;;;7.50;6.10;;;;;;;7.08;91.66;99206.41;112752;1190;61019;-85
2021/10/16 01:54:07;;;;;;;8.60;6.20;;;;;;;7.01;91.76;99208.67;112734;1190;64682;-85
2021/10/16 01:56:34;;;;;;;7.70;4.40;;;;;;;6.95;91.86;99210.20;112737;1190;61036;-86
2021/10/16 01:59:11;;;;;;;7.80;4.70;;;;;;;6.89;91.79;99209.79;112668;1190;62476;-85
2021/10/16 02:01:38;;;;;;;5.80;4.00;;;;;;;6.82;91.83;99211.52;112657;1190;61068;-83
2021/10/16 02:04:05;;;;;;;5.80;4.10;;;;;;;6.77;91.97;99216.20;112654;1190;61026;-85
2021/10/16 02:06:32;;;;;;;8.10;4.00;;;;;;;6.72;92.16;99213.81;112657;1190;64643;-85
2021/10/16 02:08:58;;;;;;;5.50;3.60;;;;;;;6.68;92.35;99220.90;112699;1190;68623;-85
2021/10/16 02:11:25;;;;;;;5.40;4.00;;;;;;;6.66;92.42;99223.82;112639;1189;63796;-85
2021/10/16 02:13:52;;;;;;;5.50;4.30;;;;;;;6.63;92.39;99228.73;112695;1189;61059;-85
2021/10/16 02:16:18;;;;;;;8.80;6.50;;;;;;;6.58;92.49;99227.14;112723;1190;60988;-85
2021/10/16 02:18:45;;;;;;;7.00;5.70;;;;;;;6.55;92.66;99232.61;112706;1190;64583;-85
2021/10/16 02:21:12;;;;;;;9.10;4.30;;;;;;;6.51;92.72;99229.80;112629;1191;61062;-85
2021/10/16 02:23:38;;;;;;;8.50;4.20;;;;;;;6.48;92.80;99229.23;112695;1189;62648;-84
2021/10/16 02:26:05;;;;;;;9.40;5.40;;;;;;;6.46;92.83;99230.56;112616;1190;61062;-84
2021/10/16 02:28:32;;;;;;;14.60;9.80;;;;;;;6.42;92.87;99231.95;112710;1189;61052;-84
2021/10/16 02:30:58;;;;;;;14.80;10.50;;;;;;;6.37;92.87;99236.41;112632;1190;64656;-84
2021/10/16 02:33:25;;;;;;;12.70;9.60;;;;;;;6.36;93.02;99236.10;112592;1193;61059;-84
2021/10/16 02:35:52;;;;;;;11.20;8.30;;;;;;;6.35;93.04;99238.48;112659;1189;63984;-84
2021/10/16 02:38:18;;;;;;;9.70;8.60;;;;;;;6.36;93.09;99238.77;112583;1184;61091;-84
2021/10/16 02:40:45;;;;;;;9.20;7.10;;;;;;;6.38;93.09;99240.28;112768;1190;61132;-84
2021/10/16 02:43:12;;;;;;;8.90;7.70;;;;;;;6.40;93.23;99240.35;112665;1190;66008;-84
2021/10/16 02:45:38;;;;;;;8.50;6.60;;;;;;;6.45;93.25;99243.50;112693;1190;61042;-84
2021/10/16 02:48:05;;;;;;;8.00;6.90;;;;;;;6.50;93.27;99248.35;112721;1189;62643;-84
2021/10/16 02:50:32;;;;;;;7.60;6.80;;;;;;;6.55;93.17;99249.17;112640;1190;61016;-84
2021/10/16 02:52:58;;;;;;;8.20;6.60;;;;;;;6.61;93.24;99252.63;112722;1190;60965;-84
2021/10/16 02:55:25;;;;;;;7.10;6.40;;;;;;;6.68;93.18;99256.71;112736;1190;64985;-84
2021/10/16 02:57:52;;;;;;;9.20;7.10;;;;;;;6.71;93.13;99260.27;112703;1190;61058;-84
2021/10/16 03:00:19;;;;;;;8.20;7.30;;;;;;;6.76;93.16;99262.52;112650;1189;62705;-85
2021/10/16 03:02:45;;;;;;;11.00;8.50;;;;;;;6.84;93.09;99262.16;112597;1192;61072;-84
2021/10/16 03:05:12;;;;;;;13.30;10.00;;;;;;;6.89;92.98;99265.09;112772;1190;60981;-85
2021/10/16 03:07:39;;;;;;;15.60;10.30;;;;;;;6.89;92.86;99263.86;112751;1189;64595;-85
2021/10/16 03:10:05;;;;;;;11.80;9.90;;;;;;;6.88;92.87;99265.50;112712;1189;60975;-84
2021/10/16 03:12:32;;;;;;;11.60;9.80;;;;;;;6.88;92.96;99266.52;112753;1190;65319;-85
2021/10/16 03:14:59;;;;;;;12.80;9.60;;;;;;;6.91;92.97;99272.23;112686;1190;61042;-85
2021/10/16 03:17:25;;;;;;;12.90;10.40;;;;;;;6.95;93.04;99272.20;112608;1190;59713;-85
2021/10/16 03:19:52;;;;;;;11.10;8.60;;;;;;;6.99;92.98;99270.58;112685;1190;64792;-85
2021/10/16 03:22:19;;;;;;;12.60;9.60;;;;;;;7.05;92.93;99268.91;112825;1190;61862;-85
2021/10/16 03:24:45;;;;;;;10.00;8.60;;;;;;;7.11;92.90;99268.99;112597;1193;62638;-85
2021/10/16 03:27:12;;;;;;;10.10;7.00;;;;;;;7.17;93.07;99272.35;112662;1190;61020;-86
2021/10/16 03:29:39;;;;;;;9.00;6.70;;;;;;;7.24;93.05;99272.23;112843;1190;61151;-85
2021/10/16 03:32:06;;;;;;;7.80;6.10;;;;;;;7.28;92.88;99273.98;112780;1190;66039;-85
2021/10/16 03:34:32;;;;;;;9.90;6.60;;;;;;;7.31;92.86;99277.02;112727;1191;61022;-85
2021/10/16 03:36:59;;;;;;;8.10;7.10;;;;;;;7.34;93.04;99277.38;112695;1190;64012;-85
2021/10/16 03:39:26;;;;;;;9.40;5.00;;;;;;;7.37;92.94;99274.92;112728;1190;61046;-85
2021/10/16 03:41:52;;;;;;;8.70;5.60;;;;;;;7.41;92.86;99281.31;112786;1190;61020;-85
2021/10/16 03:44:19;;;;;;;7.30;6.10;;;;;;;7.42;92.79;99283.35;112690;1190;73809;-85
2021/10/16 03:46:46;;;;;;;8.90;6.10;;;;;;;7.44;92.87;99279.36;112735;1190;61045;-85
2021/10/16 03:49:12;;;;;;;10.00;7.60;;;;;;;7.49;93.10;99277.19;112737;1190;62601;-85
2021/10/16 03:51:39;;;;;;;11.70;10.50;;;;;;;7.52;93.18;99279.51;112611;1191;61061;-85
2021/10/16 03:54:05;;;;;;;11.20;9.90;;;;;;;7.53;92.94;99277.34;112611;1194;60996;-85
2021/10/16 03:56:32;;;;;;;13.60;10.60;;;;;;;7.54;92.95;99278.20;112648;1190;65866;-85
2021/10/16 03:58:59;;;;;;;11.20;7.90;;;;;;;7.56;93.15;99278.64;112638;1189;61039;-84
2021/10/16 04:01:25;;;;;;;9.70;8.70;;;;;;;7.55;93.13;99278.11;112672;1190;62495;-84
2021/10/16 04:03:52;;;;;;;13.60;10.60;;;;;;;7.55;93.11;99279.38;112650;1190;61036;-85
2021/10/16 04:06:19;;;;;;;12.90;9.70;;;;;;;7.56;93.24;99274.71;112722;1190;61029;-86
2021/10/16 04:08:45;;;;;;;13.10;10.20;;;;;;;7.55;93.21;99277.05;112850;1189;66010;-85
2021/10/16 04:11:12;;;;;;;15.40;11.60;;;;;;;7.55;93.36;99275.48;112740;1190;61013;-85
2021/10/16 04:13:38;;;;;;;16.10;12.40;;;;;;;7.53;93.42;99274.69;112638;1190;64087;-87
2021/10/16 04:16:05;;;;;;;13.70;11.50;;;;;;;7.51;93.44;99274.79;112675;1190;61673;-86
2021/10/16 04:18:32;;;;;;;15.70;14.00;;;;;;;7.50;93.57;99273.06;112744;1190;61033;-87
2021/10/16 04:20:58;;;;;;;16.10;13.40;;;;;;;7.51;93.67;99271.78;112670;1190;73239;-85
2021/10/16 04:23:25;;;;;;;17.10;15.20;;;;;;;7.51;93.77;99275.68;112708;1190;61033;-86
2021/10/16 04:25:52;;;;;;;21.20;15.50;;;;;;;7.52;93.83;99277.39;112710;1189;63665;-85
2021/10/16 04:28:18;;;;;;;19.90;15.50;;;;;;;7.52;93.95;99275.45;112628;1190;61023;-84
2021/10/16 04:30:45;;;;;;;20.00;14.60;;;;;;;7.52;93.86;99281.45;112628;1189;60924;-85
2021/10/16 04:33:12;;;;;;;22.50;14.40;;;;;;;7.52;93.88;99283.96;112577;1190;66129;-86
2021/10/16 04:35:40;;;;;;;24.70;16.50;;;;;;;7.53;93.97;99286.55;112633;1193;61094;-86
2021/10/16 04:38:07;;;;;;;27.30;17.30;;;;;;;7.54;93.80;99287.56;112710;1190;64031;-86
2021/10/16 04:40:34;;;;;;;27.40;18.10;;;;;;;7.55;93.91;99288.91;112656;1190;61036;-86
2021/10/16 04:43:05;;;;;;;23.50;17.40;;;;;;;7.60;94.01;99291.16;112642;1190;61109;-86
2021/10/16 04:45:32;;;;;;;21.70;15.10;;;;;;;7.64;94.00;99290.91;112662;1190;66046;-86
2021/10/16 04:48:00;;;;;;;23.30;15.80;;;;;;;7.66;93.96;99291.34;112662;1189;61084;-84
2021/10/16 04:50:27;;;;;;;18.80;16.00;;;;;;;7.68;93.98;99291.08;112714;1190;65011;-86
2021/10/16 04:52:53;;;;;;;17.10;13.90;;;;;;;7.72;94.08;99292.33;112661;1190;61023;-86
2021/10/16 04:55:23;;;;;;;18.30;14.80;;;;;;;7.71;94.05;99297.47;112664;1190;60943;-85
2021/10/16 04:57:50;;;;;;;21.90;19.30;;;;;;;7.71;93.89;99298.73;112623;1190;64656;-85
2021/10/16 05:00:17;;;;;;;17.60;14.20;;;;;;;7.70;93.74;99304.09;112667;1190;60943;-86
2021/10/16 05:02:44;;;;;;;18.30;14.30;;;;;;;7.68;93.79;99307.50;112680;1190;63668;-86
2021/10/16 05:05:11;;;;;;;14.60;12.30;;;;;;;7.68;93.91;99304.15;112709;1189;61042;-84
2021/10/16 05:07:37;;;;;;;15.30;12.00;;;;;;;7.69;93.88;99305.38;112446;1190;61075;-85
2021/10/16 05:10:04;;;;;;;13.20;11.00;;;;;;;7.70;93.96;99309.40;112544;1189;65021;-87
2021/10/16 05:12:31;;;;;;;14.50;10.60;;;;;;;7.71;94.02;99311.63;112670;1190;61046;-86
2021/10/16 05:14:58;;;;;;;15.00;11.80;;;;;;;7.73;93.97;99313.83;112705;1190;64957;-85
2021/10/16 05:17:24;;;;;;;14.80;12.40;;;;;;;7.74;93.97;99314.48;112774;1190;61092;-87
2021/10/16 05:19:51;;;;;;;17.20;13.90;;;;;;;7.73;93.97;99314.52;112718;1190;60943;-84
2021/10/16 05:22:18;;;;;;;20.10;15.00;;;;;;;7.73;94.00;99318.42;112698;1189;64670;-86
2021/10/16 05:24:45;;;;;;;17.00;14.80;;;;;;;7.76;94.07;99319.16;112626;1190;61006;-87
2021/10/16 05:27:11;;;;;;;16.10;14.00;;;;;;;7.79;94.09;99321.64;112669;1190;63808;-84
2021/10/16 05:29:38;;;;;;;19.80;14.30;;;;;;;7.83;94.11;99320.58;112638;1190;61036;-84
2021/10/16 05:32:05;;;;;;;20.30;16.00;;;;;;;7.85;94.13;99324.73;112668;1190;60993;-84
2021/10/16 05:34:31;;;;;;;17.40;13.00;;;;;;;7.89;94.14;99327.54;112679;1190;64632;-84
2021/10/16 05:36:58;;;;;;;18.40;14.70;;;;;;;7.92;94.11;99329.70;112704;1190;61049;-85
2021/10/16 05:39:25;;;;;;;21.10;15.20;;;;;;;7.93;94.10;99332.46;112726;1189;62443;-85
2021/10/16 05:41:51;;;;;;;18.80;14.60;;;;;;;7.96;93.97;99334.63;112788;1190;61044;-85
2021/10/16 05:44:18;;;;;;;19.00;14.90;;;;;;;7.99;93.98;99335.67;112693;1189;60943;-85
2021/10/16 05:46:45;;;;;;;18.60;15.30;;;;;;;8.01;94.04;99340.00;112717;1190;64878;-85
2021/10/16 05:49:11;;;;;;;18.70;14.90;;;;;;;8.02;93.89;99342.41;112703;1190;61148;-84
2021/10/16 05:51:38;;;;;;;21.70;15.00;;;;;;;8.05;93.95;99343.70;112683;1189;62620;-85
2021/10/16 05:54:05;;;;;;;18.40;14.20;;;;;;;8.08;93.86;99347.11;112641;1190;61143;-85
2021/10/16 05:56:31;;;;;;;19.80;15.00;;;;;;;8.12;93.92;99346.18;112676;1189;61051;-85
2021/10/16 05:58:59;;;;;;;17.30;14.30;;;;;;;8.16;93.93;99347.90;112627;1190;64625;-85
2021/10/16 06:01:27;;;;;;;19.00;14.20;;;;;;;8.22;93.95;99348.86;112666;1190;60936;-84
2021/10/16 06:03:54;;;;;;;20.10;14.50;;;;;;;8.27;93.90;99350.04;112594;1190;64019;-87
2021/10/16 06:06:21;;;;;;;22.20;17.00;;;;;;;8.28;93.73;99352.09;112597;1190;61046;-87
2021/10/16 06:08:47;;;;;;;20.60;16.10;;;;;;;8.30;93.65;99352.69;112674;1190;61074;-87
2021/10/16 06:11:14;;;;;;;18.50;14.70;;;;;;;8.31;93.58;99359.36;112694;1190;67027;-85
2021/10/16 06:13:41;;;;;;;15.30;12.40;;;;;;;8.31;93.50;99361.14;112664;1190;60965;-85
2021/10/16 06:16:08;;;;;;;16.70;12.20;;;;;;;8.31;93.47;99365.88;112568;1190;63840;-87
2021/10/16 06:18:35;;;;;;;20.10;12.70;;;;;;;8.34;93.49;99366.44;112741;1190;60940;-85
2021/10/16 06:21:03;;;;;;;18.10;12.80;;;;;;;8.40;93.52;99369.00;112594;1190;61047;-85
2021/10/16 06:23:30;;;;;;;17.80;13.60;;;;;;;8.46;93.43;99370.48;112611;1190;66012;-85
2021/10/16 06:25:58;;;;;;;18.70;13.50;;;;;;;8.53;93.36;99371.52;112664;1190;60972;-85
2021/10/16 06:28:24;;;;;;;20.50;13.60;;;;;;;8.61;93.28;99374.14;112712;1190;64109;-85
2021/10/16 06:30:51;;;;;;;21.60;15.80;;;;;;;8.65;93.15;99374.96;112572;1190;61090;-85
2021/10/16 06:33:18;;;;;;;19.40;14.30;;;;;;;8.71;93.13;99378.52;112638;1190;60959;-85
2021/10/16 06:35:45;;;;;;;19.50;15.40;;;;;;;8.77;92.92;99378.91;112680;1189;65663;-84
2021/10/16 06:38:12;;;;;;;17.60;14.00;;;;;;;8.85;92.92;99378.14;112558;1190;61013;-84
2021/10/16 06:40:39;;;;;;;19.30;16.10;;;;;;;8.94;92.68;99380.85;112689;1189;62688;-84
2021/10/16 06:43:05;;;;;;;21.70;17.10;;;;;;;9.05;92.55;99379.05;112664;1190;61205;-85
2021/10/16 06:45:33;;;;;;;18.90;14.20;;;;;;;9.14;92.37;99379.92;112704;1179;61048;-84
2021/10/16 06:47:59;;;;;;;19.90;15.40;;;;;;;9.22;92.12;99380.73;112754;1190;65462;-85
2021/10/16 06:50:26;;;;;;;19.90;13.60;;;;;;;9.29;91.78;99381.81;112693;1190;60997;-85
2021/10/16 06:52:53;;;;;;;19.10;13.00;;;;;;;9.34;91.47;99383.10;112638;1190;64999;-85
2021/10/16 06:55:19;;;;;;;15.50;11.40;;;;;;;9.45;91.34;99384.98;112725;1190;61045;-85
2021/10/16 06:57:47;;;;;;;16.40;12.00;;;;;;;9.52;91.05;99388.10;112728;1189;61020;-85
2021/10/16 07:00:14;;;;;;;16.50;12.10;;;;;;;9.63;90.71;99391.79;112679;1190;66107;-85
2021/10/16 07:02:41;;;;;;;19.20;13.20;;;;;;;9.74;90.51;99393.95;112735;1190;60949;-85
2021/10/16 07:05:07;;;;;;;20.50;13.90;;;;;;;9.87;90.25;99392.19;112757;1190;62773;-85
2021/10/16 07:07:34;;;;;;;17.40;13.70;;;;;;;9.97;90.18;99391.58;112741;1190;61388;-85
2021/10/16 07:10:01;;;;;;;15.40;12.20;;;;;;;10.03;89.69;99394.92;112709;1191;61058;-85
2021/10/16 07:12:29;;;;;;;15.40;12.20;;;;;;;10.07;89.56;99397.76;112680;1190;65855;-85
2021/10/16 07:14:56;;;;;;;17.30;12.80;;;;;;;10.11;89.51;99393.05;112818;1190;60905;-85
2021/10/16 07:17:22;;;;;;;18.30;12.30;;;;;;;10.18;89.51;99396.94;112764;1190;62679;-84
2021/10/16 07:19:50;;;;;;;16.50;12.60;;;;;;;10.25;89.26;99395.64;112941;1190;60962;-85
2021/10/16 07:22:19;;;;;;;18.20;13.70;;;;;;;10.26;88.94;99396.09;112775;1190;61396;-85
2021/10/16 07:24:46;;;;;;;20.20;14.00;;;;;;;10.25;88.55;99398.63;112638;1190;66134;-86
2021/10/16 07:27:13;;;;;;;21.30;14.90;;;;;;;10.21;88.50;99400.67;112880;1190;60971;-87
2021/10/16 07:29:39;;;;;;;21.00;14.80;;;;;;;10.22;88.64;99402.73;112838;1174;62596;-87
2021/10/16 07:32:06;;;;;;;19.70;15.20;;;;;;;10.29;88.67;99403.55;112661;1190;61078;-86
2021/10/16 07:34:33;;;;;;;18.70;14.50;;;;;;;10.38;88.44;99407.85;112808;1189;61129;-86
2021/10/16 07:37:00;;;;;;;22.00;16.30;;;;;;;10.43;88.09;99411.80;112751;1190;66103;-86
2021/10/16 07:39:27;;;;;;;26.10;17.50;;;;;;;10.43;87.99;99414.63;112701;1190;60969;-87
2021/10/16 07:41:53;;;;;;;18.30;14.30;;;;;;;10.43;87.83;99416.05;112570;1189;63802;-86
2021/10/16 07:44:20;;;;;;;23.70;14.90;;;;;;;10.42;87.64;99418.48;112627;1190;61010;-86
2021/10/16 07:46:47;;;;;;;23.40;15.20;;;;;;;10.45;87.60;99422.19;112578;1191;61129;-87
2021/10/16 07:49:13;;;;;;;18.50;13.30;;;;;;;10.54;87.56;99423.45;112727;1190;65990;-86
2021/10/16 07:51:41;;;;;;;16.60;13.20;;;;;;;10.62;86.99;99424.39;112699;1174;61053;-82
2021/10/16 07:54:08;;;;;;;17.80;13.40;;;;;;;10.67;86.90;99428.14;112701;1187;63988;-87
2021/10/16 07:56:35;;;;;;;18.00;13.10;;;;;;;10.75;86.87;99429.99;112618;1192;61061;-85
2021/10/16 07:59:01;;;;;;;17.00;13.30;;;;;;;10.83;86.71;99430.21;112675;1190;61050;-85
2021/10/16 08:01:28;;;;;;;15.80;11.60;;;;;;;10.92;86.46;99428.23;112712;1190;67001;-85
2021/10/16 08:03:56;;;;;;;17.20;12.60;;;;;;;11.01;86.17;99431.07;112859;1190;61007;-84
2021/10/16 08:06:23;;;;;;;18.50;12.40;;;;;;;11.11;85.94;99439.34;112844;1190;63993;-85
2021/10/16 08:08:50;;;;;;;18.00;14.20;;;;;;;11.22;85.69;99439.72;112717;1189;61007;-87
2021/10/16 08:11:17;;;;;;;20.60;13.80;;;;;;;11.33;85.30;99439.00;112783;1189;61055;-85
2021/10/16 08:13:43;;;;;;;17.10;12.00;;;;;;;11.42;84.80;99438.64;112672;1190;67005;-85
2021/10/16 08:16:10;;;;;;;18.40;13.40;;;;;;;11.43;84.62;99442.83;112600;1190;60946;-85
2021/10/16 08:18:37;;;;;;;14.00;12.20;;;;;;;11.48;84.52;99446.29;112676;1190;64974;-86
2021/10/16 08:21:03;;;;;;;17.20;12.20;;;;;;;11.53;84.40;99445.06;112675;1190;61029;-85
2021/10/16 08:23:30;;;;;;;18.00;13.70;;;;;;;11.56;83.96;99445.60;112669;1190;61030;-85
2021/10/16 08:26:00;;;;;;;19.50;13.50;;;;;;;11.53;83.39;99445.03;112671;1190;66088;-85
2021/10/16 08:28:31;;;;;;;16.00;14.10;;;;;;;11.51;83.47;99444.80;112716;1190;61141;-85
2021/10/16 08:31:01;;;;;;;17.80;12.00;;;;;;;11.49;83.37;99449.79;112641;1190;64040;-85
2021/10/16 08:33:30;;;;;;;16.70;12.70;;;;;;;11.43;83.08;99453.35;112748;1190;61017;-85
2021/10/16 08:35:56;;;;;;;15.60;12.50;;;;;;;11.39;83.24;99454.48;112667;1189;60965;-86
2021/10/16 08:38:23;;;;;;;17.10;12.50;;;;;;;11.36;83.33;99455.21;112706;1190;64386;-85
2021/10/16 08:40:50;;;;;;;13.20;11.00;;;;;;;11.34;83.33;99456.39;112680;1190;61061;-85
2021/10/16 08:43:18;;;;;;;17.60;11.80;;;;;;;11.30;83.08;99461.29;112681;1190;63764;-85
2021/10/16 08:45:45;;;;;;;17.30;11.40;;;;;;;11.26;82.95;99463.29;112625;1191;60985;-85
2021/10/16 08:48:15;;;;;;;16.90;12.80;;;;;;;11.27;82.60;99465.20;112706;1189;61538;-85
2021/10/16 08:50:44;;;;;;;;;;;;;;;11.30;82.14;99464.14;112794;1190;64637;-83
2021/10/16 08:53:11;;;;;;;20.20;16.90;;;;;;;11.34;82.41;99466.55;112648;1190;61043;-84
2021/10/16 08:55:38;;;;;;;21.40;15.60;;;;;;;11.43;82.24;99468.10;112631;1189;62735;-84
2021/10/16 08:58:05;;;;;;;21.60;14.50;;;;;;;11.48;82.17;99467.27;112652;1190;61086;-83
2021/10/16 09:00:41;;;;;;;22.40;14.50;;;;;;;11.48;82.07;99469.23;112651;1190;61004;-84
2021/10/16 09:03:28;;;;;;;17.40;13.90;;;;;;;11.48;82.32;99469.59;112699;1182;66059;-84
2021/10/16 09:06:27;;;;;;;23.40;14.70;;;;;;;11.43;82.00;99472.55;112682;1190;60975;-84
2021/10/16 09:08:59;;;;;;;17.90;14.40;;;;;;;11.23;81.52;99475.41;112641;1190;62321;-84
2021/10/16 09:11:35;;;;;;;17.00;14.00;;;;;;;11.04;81.70;99478.14;112693;1177;61029;-84
2021/10/16 09:14:02;;;;;;;23.60;16.10;;;;;;;10.90;81.61;99480.11;112678;1190;61045;-84
2021/10/16 09:16:36;;;;;;;22.10;17.30;;;;;;;10.70;81.37;99478.27;112680;1190;64757;-85
2021/10/16 09:19:13;;;;;;;19.70;13.50;;;;;;;10.48;81.64;99481.17;112741;1190;60953;-84
2021/10/16 09:22:01;;;;;;;20.30;13.00;;;;;;;10.34;82.15;99487.31;112673;1189;62614;-83
2021/10/16 09:24:31;;;;;;;17.00;12.50;;;;;;;10.36;82.29;99483.10;112782;1190;61014;-85
2021/10/16 09:27:09;;;;;;;15.80;12.60;;;;;;;10.46;82.27;99485.73;112692;1190;61054;-84
2021/10/16 09:29:42;;;;;;;15.90;12.20;;;;;;;10.64;82.20;99482.50;112673;1174;65683;-84
2021/10/16 09:32:12;;;;;;;16.40;13.10;;;;;;;10.83;81.56;99483.54;112762;1190;60965;-84
2021/10/16 09:34:41;;;;;;;17.40;13.20;;;;;;;10.91;80.69;99488.37;112673;1190;64047;-85
2021/10/16 09:37:18;;;;;;;14.10;11.50;;;;;;;11.05;80.94;99482.40;112608;1190;61218;-84
2021/10/16 09:39:48;;;;;;;16.90;12.40;;;;;;;11.16;80.33;99488.25;112693;1190;61066;-84
2021/10/16 09:42:18;;;;;;;16.50;10.90;;;;;;;11.24;80.58;99487.42;112700;1190;64555;-84
2021/10/16 09:44:47;;;;;;;16.20;11.00;;;;;;;11.37;80.49;99487.52;112744;1190;60989;-85
2021/10/16 09:47:16;;;;;;;13.50;11.00;;;;;;;11.47;80.25;99484.96;112626;1190;62634;-86
2021/10/16 09:49:47;;;;;;;12.80;10.70;;;;;;;11.53;79.59;99487.76;112692;1190;60999;-83
2021/10/16 09:52:18;;;;;;;20.20;13.00;;;;;;;11.55;79.46;99489.60;112746;1189;61001;-84
2021/10/16 09:54:47;;;;;;;15.20;11.90;;;;;;;11.62;79.60;99491.44;112687;1190;66022;-85
2021/10/16 09:57:19;;;;;;;16.20;12.80;;;;;;;11.72;79.43;99490.84;112619;1190;61020;-84
2021/10/16 09:59:46;;;;;;;16.60;11.80;;;;;;;11.75;78.95;99493.70;112620;1190;64193;-84
2021/10/16 10:02:14;;;;;;;15.00;11.90;;;;;;;11.73;78.59;99497.89;112589;1190;61008;-84
2021/10/16 10:04:45;;;;;;;16.60;11.10;;;;;;;11.62;78.44;99497.69;112704;1190;61151;-84
2021/10/16 10:07:15;;;;;;;18.10;11.60;;;;;;;11.50;78.41;99500.42;112668;1190;65901;-84
2021/10/16 10:09:43;;;;;;;13.40;12.00;;;;;;;11.41;78.74;99501.27;112727;1190;61026;-84
2021/10/16 10:12:15;;;;;;;16.50;12.00;;;;;;;11.38;79.04;99503.45;112681;1190;62441;-84
2021/10/16 10:14:45;;;;;;;16.50;12.00;;;;;;;11.37;78.68;99507.77;112723;1190;61022;-84
2021/10/16 10:17:16;;;;;;;14.20;11.80;;;;;;;11.34;78.32;99506.39;112808;1190;60946;-84
2021/10/16 10:19:47;;;;;;;16.30;11.50;;;;;;;11.37;78.36;99506.36;112698;1190;66136;-83
2021/10/16 10:22:19;;;;;;;20.60;11.50;;;;;;;11.44;78.18;99507.20;112675;1190;61496;-84
2021/10/16 10:24:51;;;;;;;15.90;11.30;;;;;;;11.56;78.26;99506.08;112602;1190;63678;-84
2021/10/16 10:27:20;;;;;;;12.20;9.60;;;;;;;11.81;77.81;99501.11;112700;1190;61071;-83
2021/10/16 10:29:52;;;;;;;14.20;10.10;;;;;;;12.06;76.41;99504.02;112711;1190;61023;-86
2021/10/16 10:32:19;;;;;;;11.30;9.30;;;;;;;12.20;76.08;99498.09;112776;1190;66780;-85
2021/10/16 10:34:58;;;;;;;12.80;9.20;;;;;;;12.34;76.35;99496.09;112842;1190;60934;-83
2021/10/16 10:37:31;;;;;;;13.10;9.00;;;;;;;12.43;75.06;99493.58;112660;1190;64037;-86
2021/10/16 10:39:59;;;;;;;11.80;8.50;;;;;;;12.38;74.86;99492.98;113009;1190;60978;-85
2021/10/16 10:42:25;;;;;;;9.70;7.90;;;;;;;12.34;74.67;99499.11;112847;1192;61025;-85
2021/10/16 10:44:59;;;;;;;11.60;7.80;;;;;;;12.38;74.59;99493.34;112677;1190;64667;-85
2021/10/16 10:47:30;;;;;;;12.80;8.40;;;;;;;12.34;74.37;99487.55;112685;1190;61032;-86
2021/10/16 10:49:58;;;;;;;10.80;6.40;;;;;;;12.19;74.46;99488.91;112603;1190;63808;-86
2021/10/16 10:52:27;;;;;;;7.60;5.70;;;;;;;11.95;74.20;99485.81;112728;1190;60975;-83
2021/10/16 10:55:07;;;;;;;11.50;7.00;;;;;;;11.71;74.38;99483.23;112686;1190;60978;-84
2021/10/16 10:57:48;;;;;;;13.70;7.60;;;;;;;11.53;74.45;99482.27;112785;1190;66046;-84
2021/10/16 11:00:38;;;;;;;14.40;8.00;;;;;;;11.35;74.62;99475.55;112720;1190;60982;-85
2021/10/16 11:03:34;;;;;;;11.00;7.00;;;;;;;11.22;74.89;99473.33;112761;1190;63998;-84
2021/10/16 11:06:11;;;;;;;12.70;7.30;;;;;;;11.14;75.17;99468.34;112589;1190;60914;-84
2021/10/16 11:08:38;;;;;;;12.70;6.00;;;;;;;11.12;75.20;99467.20;112675;1190;61119;-84
2021/10/16 11:11:06;;;;;;;11.00;5.90;;;;;;;11.20;75.34;99465.11;112662;1190;66001;-84
2021/10/16 11:13:35;;;;;;;11.00;7.20;;;;;;;11.36;75.54;99463.02;112739;1190;60992;-84
2021/10/16 11:16:04;;;;;;;12.80;7.80;;;;;;;11.58;75.80;99461.64;112733;1190;62653;-85
2021/10/16 11:18:31;;;;;;;12.70;7.40;;;;;;;11.80;75.74;99454.86;112691;1190;60975;-84
2021/10/16 11:21:16;;;;;;;12.70;6.50;;;;;;;12.12;75.51;99448.58;112682;1190;61046;-84
2021/10/16 11:23:43;;;;;;;10.40;6.20;;;;;;;12.56;74.77;99445.60;112708;1190;64662;-84